sensor_id;sensor_type;location;lat;lon;timestamp;P1;durP1;ratioP1;P2;durP2;ratioP2
66761;SDS011;53672;48.176;16.338;2024-01-30T00:00:29;16.30;;;6.05;;
66761;SDS011;53672;48.176;16.338;2024-01-30T00:05:32;10.37;;;3.93;;
66761;SDS011;53672;48.176;16.338;2024-01-30T00:10:33;17.17;;;6.60;;
66761;SDS011;53672;48.176;16.338;2024-01-30T00:15:36;17.97;;;7.83;;
66761;SDS011;53672;48.176;16.338;2024-01-30T00:20:39;28.10;;;8.98;;
66761;SDS011;53672;48.176;16.338;2024-01-30T00:25:41;17.17;;;6.65;;
66761;SDS011;53672;48.176;16.338;2024-01-30T00:30:42;19.83;;;6.47;;
66761;SDS011;53672;48.176;16.338;2024-01-30T00:35:45;25.80;;;9.65;;
66761;SDS011;53672;48.176;16.338;2024-01-30T00:40:47;20.90;;;8.70;;
66761;SDS011;53672;48.176;16.338;2024-01-30T00:45:48;15.23;;;5.85;;
66761;SDS011;53672;48.176;16.338;2024-01-30T00:50:53;17.67;;;5.97;;
66761;SDS011;53672;48.176;16.338;2024-01-30T00:55:55;18.00;;;8.13;;
66761;SDS011;53672;48.176;16.338;2024-01-30T01:00:56;23.98;;;9.25;;
66761;SDS011;53672;48.176;16.338;2024-01-30T01:05:59;27.03;;;9.20;;
66761;SDS011;53672;48.176;16.338;2024-01-30T01:11:01;15.00;;;5.68;;
66761;SDS011;53672;48.176;16.338;2024-01-30T01:16:03;22.20;;;8.27;;
66761;SDS011;53672;48.176;16.338;2024-01-30T01:21:07;20.63;;;8.40;;
66761;SDS011;53672;48.176;16.338;2024-01-30T01:26:08;24.33;;;7.95;;
66761;SDS011;53672;48.176;16.338;2024-01-30T01:31:10;23.23;;;9.90;;
66761;SDS011;53672;48.176;16.338;2024-01-30T01:36:14;22.92;;;9.05;;
66761;SDS011;53672;48.176;16.338;2024-01-30T01:41:16;17.13;;;6.35;;
66761;SDS011;53672;48.176;16.338;2024-01-30T01:46:17;21.63;;;9.17;;
66761;SDS011;53672;48.176;16.338;2024-01-30T01:51:20;18.40;;;6.68;;
66761;SDS011;53672;48.176;16.338;2024-01-30T01:56:23;23.87;;;9.13;;
66761;SDS011;53672;48.176;16.338;2024-01-30T02:01:25;24.83;;;9.52;;
66761;SDS011;53672;48.176;16.338;2024-01-30T02:06:29;21.02;;;7.55;;
66761;SDS011;53672;48.176;16.338;2024-01-30T02:11:32;20.63;;;7.10;;
66761;SDS011;53672;48.176;16.338;2024-01-30T02:16:34;9.20;;;3.85;;
66761;SDS011;53672;48.176;16.338;2024-01-30T02:21:38;19.73;;;6.70;;
66761;SDS011;53672;48.176;16.338;2024-01-30T02:26:40;12.90;;;5.32;;
66761;SDS011;53672;48.176;16.338;2024-01-30T02:31:41;17.63;;;6.70;;
66761;SDS011;53672;48.176;16.338;2024-01-30T02:36:44;18.27;;;7.43;;
66761;SDS011;53672;48.176;16.338;2024-01-30T02:41:46;18.48;;;7.15;;
66761;SDS011;53672;48.176;16.338;2024-01-30T02:46:48;21.03;;;8.63;;
66761;SDS011;53672;48.176;16.338;2024-01-30T02:51:51;25.45;;;9.73;;
66761;SDS011;53672;48.176;16.338;2024-01-30T02:56:53;17.98;;;6.30;;
66761;SDS011;53672;48.176;16.338;2024-01-30T03:01:55;14.40;;;5.93;;
66761;SDS011;53672;48.176;16.338;2024-01-30T03:06:58;12.30;;;5.38;;
66761;SDS011;53672;48.176;16.338;2024-01-30T03:12:00;23.07;;;9.53;;
66761;SDS011;53672;48.176;16.338;2024-01-30T03:17:01;18.92;;;6.88;;
66761;SDS011;53672;48.176;16.338;2024-01-30T03:22:05;13.70;;;4.60;;
66761;SDS011;53672;48.176;16.338;2024-01-30T03:27:06;21.87;;;8.27;;
66761;SDS011;53672;48.176;16.338;2024-01-30T03:32:08;15.10;;;5.53;;
66761;SDS011;53672;48.176;16.338;2024-01-30T03:37:11;10.80;;;4.20;;
66761;SDS011;53672;48.176;16.338;2024-01-30T03:42:12;16.80;;;6.05;;
66761;SDS011;53672;48.176;16.338;2024-01-30T03:47:14;18.23;;;6.43;;
66761;SDS011;53672;48.176;16.338;2024-01-30T03:52:17;27.17;;;9.83;;
66761;SDS011;53672;48.176;16.338;2024-01-30T03:57:20;22.38;;;8.85;;
66761;SDS011;53672;48.176;16.338;2024-01-30T04:02:22;23.07;;;9.73;;
66761;SDS011;53672;48.176;16.338;2024-01-30T04:07:25;26.95;;;9.75;;
66761;SDS011;53672;48.176;16.338;2024-01-30T04:12:26;23.65;;;9.93;;
66761;SDS011;53672;48.176;16.338;2024-01-30T04:17:28;25.63;;;10.00;;
66761;SDS011;53672;48.176;16.338;2024-01-30T04:22:31;28.17;;;9.95;;
66761;SDS011;53672;48.176;16.338;2024-01-30T04:27:33;23.43;;;8.37;;
66761;SDS011;53672;48.176;16.338;2024-01-30T04:32:35;24.98;;;9.90;;
66761;SDS011;53672;48.176;16.338;2024-01-30T04:37:38;25.00;;;9.50;;
66761;SDS011;53672;48.176;16.338;2024-01-30T04:42:40;28.93;;;10.70;;
66761;SDS011;53672;48.176;16.338;2024-01-30T04:47:41;27.05;;;9.95;;
66761;SDS011;53672;48.176;16.338;2024-01-30T04:52:44;30.40;;;10.97;;
66761;SDS011;53672;48.176;16.338;2024-01-30T04:57:46;23.13;;;8.07;;
66761;SDS011;53672;48.176;16.338;2024-01-30T05:02:48;23.85;;;8.30;;
66761;SDS011;53672;48.176;16.338;2024-01-30T05:07:50;19.33;;;6.93;;
66761;SDS011;53672;48.176;16.338;2024-01-30T05:12:52;30.55;;;10.55;;
66761;SDS011;53672;48.176;16.338;2024-01-30T05:17:54;18.63;;;6.27;;
66761;SDS011;53672;48.176;16.338;2024-01-30T05:22:57;25.40;;;8.68;;
66761;SDS011;53672;48.176;16.338;2024-01-30T05:27:58;20.88;;;8.52;;
66761;SDS011;53672;48.176;16.338;2024-01-30T05:33:00;30.57;;;10.70;;
66761;SDS011;53672;48.176;16.338;2024-01-30T05:38:03;19.13;;;6.60;;
66761;SDS011;53672;48.176;16.338;2024-01-30T05:43:05;28.57;;;10.97;;
66761;SDS011;53672;48.176;16.338;2024-01-30T05:48:07;25.80;;;10.05;;
66761;SDS011;53672;48.176;16.338;2024-01-30T05:53:10;20.33;;;7.35;;
66761;SDS011;53672;48.176;16.338;2024-01-30T05:58:11;16.93;;;6.30;;
66761;SDS011;53672;48.176;16.338;2024-01-30T06:03:13;17.95;;;7.25;;
66761;SDS011;53672;48.176;16.338;2024-01-30T06:08:16;20.47;;;7.03;;
66761;SDS011;53672;48.176;16.338;2024-01-30T06:13:18;13.90;;;5.53;;
66761;SDS011;53672;48.176;16.338;2024-01-30T06:18:20;26.05;;;10.68;;
66761;SDS011;53672;48.176;16.338;2024-01-30T06:23:23;29.37;;;11.70;;
66761;SDS011;53672;48.176;16.338;2024-01-30T06:28:24;25.98;;;11.20;;
66761;SDS011;53672;48.176;16.338;2024-01-30T06:33:26;28.60;;;10.80;;
66761;SDS011;53672;48.176;16.338;2024-01-30T06:38:29;33.35;;;12.10;;
66761;SDS011;53672;48.176;16.338;2024-01-30T06:43:31;28.65;;;10.85;;
66761;SDS011;53672;48.176;16.338;2024-01-30T06:48:32;29.07;;;10.10;;
66761;SDS011;53672;48.176;16.338;2024-01-30T06:53:35;29.70;;;10.63;;
66761;SDS011;53672;48.176;16.338;2024-01-30T06:58:37;29.23;;;10.57;;
66761;SDS011;53672;48.176;16.338;2024-01-30T07:03:38;31.63;;;11.35;;
66761;SDS011;53672;48.176;16.338;2024-01-30T07:08:42;28.10;;;11.52;;
66761;SDS011;53672;48.176;16.338;2024-01-30T07:13:43;27.50;;;11.10;;
66761;SDS011;53672;48.176;16.338;2024-01-30T07:18:45;27.35;;;10.85;;
66761;SDS011;53672;48.176;16.338;2024-01-30T07:23:48;29.63;;;10.70;;
66761;SDS011;53672;48.176;16.338;2024-01-30T07:28:50;30.73;;;11.40;;
66761;SDS011;53672;48.176;16.338;2024-01-30T07:33:51;27.33;;;10.00;;
66761;SDS011;53672;48.176;16.338;2024-01-30T07:38:54;27.37;;;8.60;;
66761;SDS011;53672;48.176;16.338;2024-01-30T07:43:56;20.70;;;9.27;;
66761;SDS011;53672;48.176;16.338;2024-01-30T07:48:58;18.73;;;6.93;;
66761;SDS011;53672;48.176;16.338;2024-01-30T07:54:01;21.70;;;6.97;;
66761;SDS011;53672;48.176;16.338;2024-01-30T07:59:03;19.90;;;7.57;;
66761;SDS011;53672;48.176;16.338;2024-01-30T08:04:05;24.30;;;10.03;;
66761;SDS011;53672;48.176;16.338;2024-01-30T08:09:07;18.23;;;6.80;;
66761;SDS011;53672;48.176;16.338;2024-01-30T08:14:09;17.07;;;6.63;;
66761;SDS011;53672;48.176;16.338;2024-01-30T08:19:11;23.25;;;9.77;;
66761;SDS011;53672;48.176;16.338;2024-01-30T08:24:14;23.10;;;9.32;;
66761;SDS011;53672;48.176;16.338;2024-01-30T08:29:16;23.30;;;9.23;;
66761;SDS011;53672;48.176;16.338;2024-01-30T08:34:17;14.43;;;5.60;;
66761;SDS011;53672;48.176;16.338;2024-01-30T08:39:20;19.80;;;9.03;;
66761;SDS011;53672;48.176;16.338;2024-01-30T08:44:22;20.50;;;9.40;;
66761;SDS011;53672;48.176;16.338;2024-01-30T08:49:23;21.27;;;9.63;;
66761;SDS011;53672;48.176;16.338;2024-01-30T08:54:26;21.13;;;10.40;;
66761;SDS011;53672;48.176;16.338;2024-01-30T08:59:28;19.77;;;9.93;;
66761;SDS011;53672;48.176;16.338;2024-01-30T09:04:30;17.77;;;10.60;;
66761;SDS011;53672;48.176;16.338;2024-01-30T09:09:33;18.13;;;10.52;;
66761;SDS011;53672;48.176;16.338;2024-01-30T09:14:34;18.25;;;10.52;;
66761;SDS011;53672;48.176;16.338;2024-01-30T09:19:36;16.43;;;10.00;;
66761;SDS011;53672;48.176;16.338;2024-01-30T09:24:39;17.42;;;10.90;;
66761;SDS011;53672;48.176;16.338;2024-01-30T09:29:41;18.30;;;10.70;;
66761;SDS011;53672;48.176;16.338;2024-01-30T09:34:43;15.57;;;10.65;;
66761;SDS011;53672;48.176;16.338;2024-01-30T09:39:46;16.88;;;10.85;;
66761;SDS011;53672;48.176;16.338;2024-01-30T09:44:47;16.57;;;10.17;;
66761;SDS011;53672;48.176;16.338;2024-01-30T09:49:52;16.65;;;10.55;;
66761;SDS011;53672;48.176;16.338;2024-01-30T09:54:55;16.53;;;10.37;;
66761;SDS011;53672;48.176;16.338;2024-01-30T10:00:00;14.90;;;10.07;;
66761;SDS011;53672;48.176;16.338;2024-01-30T10:05:03;16.27;;;10.75;;
66761;SDS011;53672;48.176;16.338;2024-01-30T10:10:06;15.93;;;10.30;;
66761;SDS011;53672;48.176;16.338;2024-01-30T10:15:08;16.65;;;10.60;;
66761;SDS011;53672;48.176;16.338;2024-01-30T10:20:10;16.17;;;10.00;;
66761;SDS011;53672;48.176;16.338;2024-01-30T10:25:14;15.57;;;10.13;;
66761;SDS011;53672;48.176;16.338;2024-01-30T10:30:16;15.70;;;10.05;;
66761;SDS011;53672;48.176;16.338;2024-01-30T10:35:18;17.10;;;11.17;;
66761;SDS011;53672;48.176;16.338;2024-01-30T10:40:21;15.82;;;9.75;;
66761;SDS011;53672;48.176;16.338;2024-01-30T10:45:28;18.40;;;10.47;;
66761;SDS011;53672;48.176;16.338;2024-01-30T10:50:31;16.95;;;10.60;;
66761;SDS011;53672;48.176;16.338;2024-01-30T10:55:37;17.40;;;9.30;;
66761;SDS011;53672;48.176;16.338;2024-01-30T11:00:40;15.50;;;9.87;;
66761;SDS011;53672;48.176;16.338;2024-01-30T11:05:43;13.60;;;9.82;;
66761;SDS011;53672;48.176;16.338;2024-01-30T11:10:47;15.90;;;10.03;;
66761;SDS011;53672;48.176;16.338;2024-01-30T11:15:48;14.70;;;8.88;;
66761;SDS011;53672;48.176;16.338;2024-01-30T11:20:50;14.57;;;8.93;;
66761;SDS011;53672;48.176;16.338;2024-01-30T11:25:53;16.70;;;9.53;;
66761;SDS011;53672;48.176;16.338;2024-01-30T11:31:02;13.75;;;8.93;;
66761;SDS011;53672;48.176;16.338;2024-01-30T11:36:05;14.07;;;7.80;;
66761;SDS011;53672;48.176;16.338;2024-01-30T11:41:09;16.27;;;8.75;;
66761;SDS011;53672;48.176;16.338;2024-01-30T11:46:11;14.25;;;8.43;;
66761;SDS011;53672;48.176;16.338;2024-01-30T11:51:13;14.27;;;7.27;;
66761;SDS011;53672;48.176;16.338;2024-01-30T11:56:16;13.98;;;8.57;;
66761;SDS011;53672;48.176;16.338;2024-01-30T12:01:17;16.07;;;8.37;;
66761;SDS011;53672;48.176;16.338;2024-01-30T12:06:19;15.32;;;8.70;;
66761;SDS011;53672;48.176;16.338;2024-01-30T12:11:22;16.40;;;8.48;;
66761;SDS011;53672;48.176;16.338;2024-01-30T12:16:24;19.47;;;9.20;;
66761;SDS011;53672;48.176;16.338;2024-01-30T12:21:26;19.27;;;9.27;;
66761;SDS011;53672;48.176;16.338;2024-01-30T12:26:29;18.03;;;8.17;;
66761;SDS011;53672;48.176;16.338;2024-01-30T12:31:31;17.95;;;8.15;;
66761;SDS011;53672;48.176;16.338;2024-01-30T12:36:34;21.77;;;8.93;;
66761;SDS011;53672;48.176;16.338;2024-01-30T12:41:37;19.47;;;8.60;;
66761;SDS011;53672;48.176;16.338;2024-01-30T12:46:39;17.48;;;8.43;;
66761;SDS011;53672;48.176;16.338;2024-01-30T12:51:40;18.83;;;7.00;;
66761;SDS011;53672;48.176;16.338;2024-01-30T12:56:43;19.23;;;7.93;;
66761;SDS011;53672;48.176;16.338;2024-01-30T13:01:45;11.18;;;5.53;;
66761;SDS011;53672;48.176;16.338;2024-01-30T13:06:47;14.63;;;6.00;;
66761;SDS011;53672;48.176;16.338;2024-01-30T13:11:50;18.00;;;8.98;;
66761;SDS011;53672;48.176;16.338;2024-01-30T13:16:52;15.67;;;7.67;;
66761;SDS011;53672;48.176;16.338;2024-01-30T13:21:53;16.73;;;7.47;;
66761;SDS011;53672;48.176;16.338;2024-01-30T13:26:56;17.83;;;7.80;;
66761;SDS011;53672;48.176;16.338;2024-01-30T13:31:58;15.57;;;6.70;;
66761;SDS011;53672;48.176;16.338;2024-01-30T13:37:00;18.92;;;7.97;;
66761;SDS011;53672;48.176;16.338;2024-01-30T13:42:03;19.17;;;8.07;;
66761;SDS011;53672;48.176;16.338;2024-01-30T13:47:05;18.95;;;8.70;;
66761;SDS011;53672;48.176;16.338;2024-01-30T13:52:07;15.25;;;8.15;;
66761;SDS011;53672;48.176;16.338;2024-01-30T13:57:10;14.43;;;6.10;;
66761;SDS011;53672;48.176;16.338;2024-01-30T14:02:11;16.45;;;7.72;;
66761;SDS011;53672;48.176;16.338;2024-01-30T14:07:13;21.03;;;8.37;;
66761;SDS011;53672;48.176;16.338;2024-01-30T14:12:16;22.10;;;8.45;;
66761;SDS011;53672;48.176;16.338;2024-01-30T14:17:18;15.32;;;8.00;;
66761;SDS011;53672;48.176;16.338;2024-01-30T14:22:19;17.13;;;7.67;;
66761;SDS011;53672;48.176;16.338;2024-01-30T14:27:22;17.67;;;7.60;;
66761;SDS011;53672;48.176;16.338;2024-01-30T14:32:24;13.43;;;5.57;;
66761;SDS011;53672;48.176;16.338;2024-01-30T14:37:26;16.73;;;7.35;;
66761;SDS011;53672;48.176;16.338;2024-01-30T14:42:31;17.65;;;7.82;;
66761;SDS011;53672;48.176;16.338;2024-01-30T14:47:33;17.80;;;7.40;;
66761;SDS011;53672;48.176;16.338;2024-01-30T14:52:35;17.42;;;7.70;;
66761;SDS011;53672;48.176;16.338;2024-01-30T14:57:40;16.47;;;7.23;;
66761;SDS011;53672;48.176;16.338;2024-01-30T15:02:45;18.75;;;8.10;;
66761;SDS011;53672;48.176;16.338;2024-01-30T15:07:47;13.52;;;4.78;;
66761;SDS011;53672;48.176;16.338;2024-01-30T15:12:50;18.40;;;8.40;;
66761;SDS011;53672;48.176;16.338;2024-01-30T15:17:52;16.30;;;7.03;;
66761;SDS011;53672;48.176;16.338;2024-01-30T15:22:54;17.47;;;6.90;;
66761;SDS011;53672;48.176;16.338;2024-01-30T15:27:57;12.82;;;5.40;;
66761;SDS011;53672;48.176;16.338;2024-01-30T15:32:58;19.70;;;7.63;;
66761;SDS011;53672;48.176;16.338;2024-01-30T15:38:00;15.03;;;6.43;;
66761;SDS011;53672;48.176;16.338;2024-01-30T15:43:03;14.45;;;5.78;;
66761;SDS011;53672;48.176;16.338;2024-01-30T15:48:05;15.77;;;7.10;;
66761;SDS011;53672;48.176;16.338;2024-01-30T15:53:07;15.38;;;7.50;;
66761;SDS011;53672;48.176;16.338;2024-01-30T15:58:10;10.70;;;5.20;;
66761;SDS011;53672;48.176;16.338;2024-01-30T16:03:12;15.20;;;7.10;;
66761;SDS011;53672;48.176;16.338;2024-01-30T16:08:13;11.07;;;5.50;;
66761;SDS011;53672;48.176;16.338;2024-01-30T16:13:16;15.70;;;6.63;;
66761;SDS011;53672;48.176;16.338;2024-01-30T16:18:18;18.65;;;7.60;;
66761;SDS011;53672;48.176;16.338;2024-01-30T16:23:20;16.95;;;8.10;;
66761;SDS011;53672;48.176;16.338;2024-01-30T16:28:25;16.60;;;6.70;;
66761;SDS011;53672;48.176;16.338;2024-01-30T16:33:27;16.58;;;7.40;;
66761;SDS011;53672;48.176;16.338;2024-01-30T16:38:28;18.73;;;8.00;;
66761;SDS011;53672;48.176;16.338;2024-01-30T16:43:32;19.13;;;8.00;;
66761;SDS011;53672;48.176;16.338;2024-01-30T16:48:33;17.13;;;7.88;;
66761;SDS011;53672;48.176;16.338;2024-01-30T16:53:35;19.27;;;7.73;;
66761;SDS011;53672;48.176;16.338;2024-01-30T16:58:38;15.32;;;7.43;;
66761;SDS011;53672;48.176;16.338;2024-01-30T17:03:40;18.33;;;7.60;;
66761;SDS011;53672;48.176;16.338;2024-01-30T17:08:43;15.70;;;7.40;;
66761;SDS011;53672;48.176;16.338;2024-01-30T17:13:47;16.90;;;7.20;;
66761;SDS011;53672;48.176;16.338;2024-01-30T17:18:48;14.93;;;6.40;;
66761;SDS011;53672;48.176;16.338;2024-01-30T17:23:50;17.92;;;7.53;;
66761;SDS011;53672;48.176;16.338;2024-01-30T17:28:53;16.33;;;7.23;;
66761;SDS011;53672;48.176;16.338;2024-01-30T17:33:55;18.52;;;7.18;;
66761;SDS011;53672;48.176;16.338;2024-01-30T17:38:57;17.35;;;7.15;;
66761;SDS011;53672;48.176;16.338;2024-01-30T17:44:01;19.37;;;7.70;;
66761;SDS011;53672;48.176;16.338;2024-01-30T17:49:03;18.35;;;7.18;;
66761;SDS011;53672;48.176;16.338;2024-01-30T17:54:06;18.37;;;6.77;;
66761;SDS011;53672;48.176;16.338;2024-01-30T17:59:09;19.77;;;7.53;;
66761;SDS011;53672;48.176;16.338;2024-01-30T18:04:11;18.73;;;7.28;;
66761;SDS011;53672;48.176;16.338;2024-01-30T18:09:12;17.50;;;7.33;;
66761;SDS011;53672;48.176;16.338;2024-01-30T18:14:15;16.67;;;5.57;;
66761;SDS011;53672;48.176;16.338;2024-01-30T18:19:17;16.33;;;6.43;;
66761;SDS011;53672;48.176;16.338;2024-01-30T18:24:18;20.98;;;6.85;;
66761;SDS011;53672;48.176;16.338;2024-01-30T18:29:23;18.02;;;6.88;;
66761;SDS011;53672;48.176;16.338;2024-01-30T18:34:25;15.53;;;5.83;;
66761;SDS011;53672;48.176;16.338;2024-01-30T18:39:27;18.85;;;7.32;;
66761;SDS011;53672;48.176;16.338;2024-01-30T18:44:31;25.40;;;9.20;;
66761;SDS011;53672;48.176;16.338;2024-01-30T18:49:34;18.05;;;7.50;;
66761;SDS011;53672;48.176;16.338;2024-01-30T18:54:37;20.27;;;7.93;;
66761;SDS011;53672;48.176;16.338;2024-01-30T18:59:42;24.70;;;8.30;;
66761;SDS011;53672;48.176;16.338;2024-01-30T19:04:46;21.00;;;7.20;;
66761;SDS011;53672;48.176;16.338;2024-01-30T19:09:50;20.00;;;8.77;;
66761;SDS011;53672;48.176;16.338;2024-01-30T19:14:55;20.48;;;8.57;;
66761;SDS011;53672;48.176;16.338;2024-01-30T19:19:59;20.05;;;9.02;;
66761;SDS011;53672;48.176;16.338;2024-01-30T19:25:01;20.83;;;7.70;;
66761;SDS011;53672;48.176;16.338;2024-01-30T19:30:07;21.17;;;8.77;;
66761;SDS011;53672;48.176;16.338;2024-01-30T19:35:12;22.50;;;8.27;;
66761;SDS011;53672;48.176;16.338;2024-01-30T19:40:15;17.92;;;8.27;;
66761;SDS011;53672;48.176;16.338;2024-01-30T19:45:20;25.67;;;8.88;;
66761;SDS011;53672;48.176;16.338;2024-01-30T19:50:23;23.27;;;8.10;;
66761;SDS011;53672;48.176;16.338;2024-01-30T19:55:27;22.67;;;8.00;;
66761;SDS011;53672;48.176;16.338;2024-01-30T20:00:32;25.63;;;10.20;;
66761;SDS011;53672;48.176;16.338;2024-01-30T20:05:34;19.25;;;8.52;;
66761;SDS011;53672;48.176;16.338;2024-01-30T20:10:37;19.33;;;7.65;;
66761;SDS011;53672;48.176;16.338;2024-01-30T20:15:40;20.50;;;8.77;;
66761;SDS011;53672;48.176;16.338;2024-01-30T20:20:43;22.27;;;8.18;;
66761;SDS011;53672;48.176;16.338;2024-01-30T20:25:46;22.83;;;9.43;;
66761;SDS011;53672;48.176;16.338;2024-01-30T20:30:49;23.42;;;10.02;;
66761;SDS011;53672;48.176;16.338;2024-01-30T20:35:51;25.98;;;9.75;;
66761;SDS011;53672;48.176;16.338;2024-01-30T20:40:53;25.77;;;10.03;;
66761;SDS011;53672;48.176;16.338;2024-01-30T20:46:02;25.52;;;10.20;;
66761;SDS011;53672;48.176;16.338;2024-01-30T20:51:06;23.73;;;9.50;;
66761;SDS011;53672;48.176;16.338;2024-01-30T20:56:09;24.27;;;9.88;;
66761;SDS011;53672;48.176;16.338;2024-01-30T21:01:14;25.02;;;9.90;;
66761;SDS011;53672;48.176;16.338;2024-01-30T21:06:18;23.93;;;10.07;;
66761;SDS011;53672;48.176;16.338;2024-01-30T21:11:21;24.02;;;10.30;;
66761;SDS011;53672;48.176;16.338;2024-01-30T21:16:24;27.00;;;10.53;;
66761;SDS011;53672;48.176;16.338;2024-01-30T21:21:25;26.98;;;10.93;;
66761;SDS011;53672;48.176;16.338;2024-01-30T21:26:29;27.90;;;10.35;;
66761;SDS011;53672;48.176;16.338;2024-01-30T21:31:32;26.03;;;10.37;;
66761;SDS011;53672;48.176;16.338;2024-01-30T21:36:33;26.60;;;11.18;;
66761;SDS011;53672;48.176;16.338;2024-01-30T21:41:35;26.23;;;11.17;;
66761;SDS011;53672;48.176;16.338;2024-01-30T21:46:38;27.23;;;11.35;;
66761;SDS011;53672;48.176;16.338;2024-01-30T21:51:41;27.10;;;11.75;;
66761;SDS011;53672;48.176;16.338;2024-01-30T21:56:42;28.93;;;11.90;;
66761;SDS011;53672;48.176;16.338;2024-01-30T22:01:45;28.52;;;12.52;;
66761;SDS011;53672;48.176;16.338;2024-01-30T22:06:47;31.80;;;12.60;;
66761;SDS011;53672;48.176;16.338;2024-01-30T22:11:48;31.80;;;12.25;;
66761;SDS011;53672;48.176;16.338;2024-01-30T22:16:51;26.75;;;11.50;;
66761;SDS011;53672;48.176;16.338;2024-01-30T22:21:53;28.10;;;11.73;;
66761;SDS011;53672;48.176;16.338;2024-01-30T22:26:55;31.13;;;13.55;;
66761;SDS011;53672;48.176;16.338;2024-01-30T22:31:58;31.00;;;13.83;;
66761;SDS011;53672;48.176;16.338;2024-01-30T22:37:00;34.78;;;13.88;;
66761;SDS011;53672;48.176;16.338;2024-01-30T22:42:02;35.53;;;14.30;;
66761;SDS011;53672;48.176;16.338;2024-01-30T22:47:05;33.40;;;14.30;;
66761;SDS011;53672;48.176;16.338;2024-01-30T22:52:07;36.70;;;14.45;;
66761;SDS011;53672;48.176;16.338;2024-01-30T22:57:09;33.67;;;13.83;;
66761;SDS011;53672;48.176;16.338;2024-01-30T23:02:12;31.15;;;13.88;;
66761;SDS011;53672;48.176;16.338;2024-01-30T23:07:13;34.55;;;14.38;;
66761;SDS011;53672;48.176;16.338;2024-01-30T23:12:16;33.57;;;13.73;;
66761;SDS011;53672;48.176;16.338;2024-01-30T23:17:19;33.65;;;14.30;;
66761;SDS011;53672;48.176;16.338;2024-01-30T23:22:21;34.03;;;13.57;;
66761;SDS011;53672;48.176;16.338;2024-01-30T23:27:23;36.17;;;13.73;;
66761;SDS011;53672;48.176;16.338;2024-01-30T23:32:26;34.15;;;13.65;;
66761;SDS011;53672;48.176;16.338;2024-01-30T23:37:28;32.83;;;14.43;;
66761;SDS011;53672;48.176;16.338;2024-01-30T23:42:30;38.92;;;15.05;;
66761;SDS011;53672;48.176;16.338;2024-01-30T23:47:33;36.33;;;15.23;;
66761;SDS011;53672;48.176;16.338;2024-01-30T23:52:39;35.28;;;13.68;;
66761;SDS011;53672;48.176;16.338;2024-01-30T23:57:41;35.20;;;14.07;;
